sensor_id;sensor_type;location;lat;lon;timestamp;P1;durP1;ratioP1;P2;durP2;ratioP2
60612;SDS011;46443;59.792;17.626;2022-11-20T00:00:56;3.85;;;2.42;;
60612;SDS011;46443;59.792;17.626;2022-11-20T00:03:22;3.55;;;2.42;;
60612;SDS011;46443;59.792;17.626;2022-11-20T00:05:48;3.72;;;2.42;;
60612;SDS011;46443;59.792;17.626;2022-11-20T00:08:14;4.80;;;2.45;;
60612;SDS011;46443;59.792;17.626;2022-11-20T00:10:40;4.15;;;2.53;;
60612;SDS011;46443;59.792;17.626;2022-11-20T00:13:06;4.05;;;2.25;;
60612;SDS011;46443;59.792;17.626;2022-11-20T00:15:33;4.68;;;2.38;;
60612;SDS011;46443;59.792;17.626;2022-11-20T00:17:59;4.32;;;2.60;;
60612;SDS011;46443;59.792;17.626;2022-11-20T00:20:25;4.40;;;2.40;;
60612;SDS011;46443;59.792;17.626;2022-11-20T00:22:51;4.22;;;2.25;;
60612;SDS011;46443;59.792;17.626;2022-11-20T00:25:17;5.20;;;2.63;;
60612;SDS011;46443;59.792;17.626;2022-11-20T00:27:43;3.07;;;2.00;;
60612;SDS011;46443;59.792;17.626;2022-11-20T00:30:10;5.68;;;2.75;;
60612;SDS011;46443;59.792;17.626;2022-11-20T00:32:36;2.97;;;2.00;;
60612;SDS011;46443;59.792;17.626;2022-11-20T00:35:02;3.90;;;2.20;;
60612;SDS011;46443;59.792;17.626;2022-11-20T00:37:29;3.85;;;2.30;;
60612;SDS011;46443;59.792;17.626;2022-11-20T00:39:55;4.47;;;2.50;;
60612;SDS011;46443;59.792;17.626;2022-11-20T00:42:21;4.60;;;2.37;;
60612;SDS011;46443;59.792;17.626;2022-11-20T00:44:47;5.43;;;2.40;;
60612;SDS011;46443;59.792;17.626;2022-11-20T00:47:13;2.95;;;2.08;;
60612;SDS011;46443;59.792;17.626;2022-11-20T00:49:39;4.18;;;1.98;;
60612;SDS011;46443;59.792;17.626;2022-11-20T00:52:05;3.63;;;2.30;;
60612;SDS011;46443;59.792;17.626;2022-11-20T00:54:31;4.07;;;2.55;;
60612;SDS011;46443;59.792;17.626;2022-11-20T00:56:57;3.40;;;2.07;;
60612;SDS011;46443;59.792;17.626;2022-11-20T00:59:23;3.70;;;2.30;;
60612;SDS011;46443;59.792;17.626;2022-11-20T01:01:49;3.97;;;2.40;;
60612;SDS011;46443;59.792;17.626;2022-11-20T01:04:15;3.28;;;2.10;;
60612;SDS011;46443;59.792;17.626;2022-11-20T01:06:41;3.83;;;2.40;;
60612;SDS011;46443;59.792;17.626;2022-11-20T01:09:10;3.58;;;2.17;;
60612;SDS011;46443;59.792;17.626;2022-11-20T01:11:37;4.03;;;2.50;;
60612;SDS011;46443;59.792;17.626;2022-11-20T01:14:04;3.67;;;2.10;;
60612;SDS011;46443;59.792;17.626;2022-11-20T01:16:34;3.55;;;2.20;;
60612;SDS011;46443;59.792;17.626;2022-11-20T01:19:02;3.88;;;2.30;;
60612;SDS011;46443;59.792;17.626;2022-11-20T01:21:30;4.03;;;2.20;;
60612;SDS011;46443;59.792;17.626;2022-11-20T01:23:56;5.38;;;2.40;;
60612;SDS011;46443;59.792;17.626;2022-11-20T01:26:23;3.85;;;2.10;;
60612;SDS011;46443;59.792;17.626;2022-11-20T01:28:49;4.15;;;2.40;;
60612;SDS011;46443;59.792;17.626;2022-11-20T01:31:23;4.10;;;2.42;;
60612;SDS011;46443;59.792;17.626;2022-11-20T01:33:51;4.95;;;2.38;;
60612;SDS011;46443;59.792;17.626;2022-11-20T01:36:17;3.80;;;2.35;;
60612;SDS011;46443;59.792;17.626;2022-11-20T01:38:43;4.88;;;2.15;;
60612;SDS011;46443;59.792;17.626;2022-11-20T01:41:10;3.63;;;2.30;;
60612;SDS011;46443;59.792;17.626;2022-11-20T01:43:56;4.53;;;2.45;;
60612;SDS011;46443;59.792;17.626;2022-11-20T01:46:22;3.90;;;2.72;;
60612;SDS011;46443;59.792;17.626;2022-11-20T01:51:26;4.18;;;2.50;;
60612;SDS011;46443;59.792;17.626;2022-11-20T01:53:54;4.20;;;2.50;;
60612;SDS011;46443;59.792;17.626;2022-11-20T01:56:20;4.28;;;2.38;;
60612;SDS011;46443;59.792;17.626;2022-11-20T01:58:48;4.32;;;2.40;;
60612;SDS011;46443;59.792;17.626;2022-11-20T02:01:15;4.25;;;2.53;;
60612;SDS011;46443;59.792;17.626;2022-11-20T02:03:41;3.78;;;2.25;;
60612;SDS011;46443;59.792;17.626;2022-11-20T02:06:42;4.10;;;2.42;;
60612;SDS011;46443;59.792;17.626;2022-11-20T02:09:00;3.97;;;2.53;;
60612;SDS011;46443;59.792;17.626;2022-11-20T02:11:26;3.78;;;2.17;;
60612;SDS011;46443;59.792;17.626;2022-11-20T02:13:52;5.93;;;2.33;;
60612;SDS011;46443;59.792;17.626;2022-11-20T02:18:48;3.88;;;2.17;;
60612;SDS011;46443;59.792;17.626;2022-11-20T02:21:37;5.10;;;2.78;;
60612;SDS011;46443;59.792;17.626;2022-11-20T02:24:05;4.15;;;2.40;;
60612;SDS011;46443;59.792;17.626;2022-11-20T02:26:38;5.38;;;2.83;;
60612;SDS011;46443;59.792;17.626;2022-11-20T02:29:05;4.15;;;2.30;;
60612;SDS011;46443;59.792;17.626;2022-11-20T02:31:38;4.13;;;2.22;;
60612;SDS011;46443;59.792;17.626;2022-11-20T02:34:05;4.63;;;2.95;;
60612;SDS011;46443;59.792;17.626;2022-11-20T02:36:32;3.60;;;2.28;;
60612;SDS011;46443;59.792;17.626;2022-11-20T02:38:58;4.45;;;2.90;;
60612;SDS011;46443;59.792;17.626;2022-11-20T02:41:34;4.93;;;3.00;;
60612;SDS011;46443;59.792;17.626;2022-11-20T02:44:01;4.95;;;3.38;;
60612;SDS011;46443;59.792;17.626;2022-11-20T02:46:27;5.28;;;2.72;;
60612;SDS011;46443;59.792;17.626;2022-11-20T02:48:53;4.40;;;2.47;;
60612;SDS011;46443;59.792;17.626;2022-11-20T02:51:19;4.75;;;2.90;;
60612;SDS011;46443;59.792;17.626;2022-11-20T02:53:45;4.78;;;3.05;;
60612;SDS011;46443;59.792;17.626;2022-11-20T02:56:11;5.07;;;3.00;;
60612;SDS011;46443;59.792;17.626;2022-11-20T02:58:37;4.45;;;2.63;;
60612;SDS011;46443;59.792;17.626;2022-11-20T03:01:03;4.97;;;2.40;;
60612;SDS011;46443;59.792;17.626;2022-11-20T03:03:29;5.57;;;2.70;;
60612;SDS011;46443;59.792;17.626;2022-11-20T03:05:58;5.43;;;2.43;;
60612;SDS011;46443;59.792;17.626;2022-11-20T03:08:24;4.57;;;2.67;;
60612;SDS011;46443;59.792;17.626;2022-11-20T03:10:50;3.70;;;2.30;;
60612;SDS011;46443;59.792;17.626;2022-11-20T03:13:16;3.17;;;2.15;;
60612;SDS011;46443;59.792;17.626;2022-11-20T03:15:42;3.95;;;2.50;;
60612;SDS011;46443;59.792;17.626;2022-11-20T03:18:08;4.68;;;2.50;;
60612;SDS011;46443;59.792;17.626;2022-11-20T03:20:34;4.53;;;2.47;;
60612;SDS011;46443;59.792;17.626;2022-11-20T03:23:00;4.30;;;2.33;;
60612;SDS011;46443;59.792;17.626;2022-11-20T03:25:27;5.63;;;2.75;;
60612;SDS011;46443;59.792;17.626;2022-11-20T03:27:53;4.95;;;2.97;;
60612;SDS011;46443;59.792;17.626;2022-11-20T03:30:19;4.57;;;2.35;;
60612;SDS011;46443;59.792;17.626;2022-11-20T03:32:45;3.83;;;2.33;;
60612;SDS011;46443;59.792;17.626;2022-11-20T03:35:11;4.03;;;2.10;;
60612;SDS011;46443;59.792;17.626;2022-11-20T03:37:37;4.82;;;2.33;;
60612;SDS011;46443;59.792;17.626;2022-11-20T03:40:04;3.60;;;2.17;;
60612;SDS011;46443;59.792;17.626;2022-11-20T03:42:30;3.28;;;1.88;;
60612;SDS011;46443;59.792;17.626;2022-11-20T03:45:14;2.78;;;1.77;;
60612;SDS011;46443;59.792;17.626;2022-11-20T03:47:41;3.53;;;2.07;;
60612;SDS011;46443;59.792;17.626;2022-11-20T03:50:07;2.97;;;1.80;;
60612;SDS011;46443;59.792;17.626;2022-11-20T03:52:34;2.78;;;1.60;;
60612;SDS011;46443;59.792;17.626;2022-11-20T03:55:00;5.05;;;2.55;;
60612;SDS011;46443;59.792;17.626;2022-11-20T03:57:26;3.53;;;1.98;;
60612;SDS011;46443;59.792;17.626;2022-11-20T03:59:52;2.22;;;1.75;;
60612;SDS011;46443;59.792;17.626;2022-11-20T04:02:18;2.53;;;1.80;;
60612;SDS011;46443;59.792;17.626;2022-11-20T04:04:44;2.47;;;1.57;;
60612;SDS011;46443;59.792;17.626;2022-11-20T04:07:10;2.57;;;1.77;;
60612;SDS011;46443;59.792;17.626;2022-11-20T04:09:36;2.97;;;1.70;;
60612;SDS011;46443;59.792;17.626;2022-11-20T04:12:02;4.82;;;1.83;;
60612;SDS011;46443;59.792;17.626;2022-11-20T04:14:28;4.30;;;1.85;;
60612;SDS011;46443;59.792;17.626;2022-11-20T04:16:54;2.63;;;1.60;;
60612;SDS011;46443;59.792;17.626;2022-11-20T04:19:20;2.58;;;1.70;;
60612;SDS011;46443;59.792;17.626;2022-11-20T04:21:46;2.37;;;1.70;;
60612;SDS011;46443;59.792;17.626;2022-11-20T04:24:12;3.17;;;1.80;;
60612;SDS011;46443;59.792;17.626;2022-11-20T04:26:38;2.67;;;1.90;;
60612;SDS011;46443;59.792;17.626;2022-11-20T04:29:05;3.13;;;2.05;;
60612;SDS011;46443;59.792;17.626;2022-11-20T04:31:32;2.97;;;1.67;;
60612;SDS011;46443;59.792;17.626;2022-11-20T04:34:03;3.38;;;2.05;;
60612;SDS011;46443;59.792;17.626;2022-11-20T04:36:29;3.30;;;2.08;;
60612;SDS011;46443;59.792;17.626;2022-11-20T04:38:56;3.25;;;1.88;;
60612;SDS011;46443;59.792;17.626;2022-11-20T04:41:24;3.50;;;1.95;;
60612;SDS011;46443;59.792;17.626;2022-11-20T04:43:51;3.55;;;2.20;;
60612;SDS011;46443;59.792;17.626;2022-11-20T04:46:18;2.38;;;1.75;;
60612;SDS011;46443;59.792;17.626;2022-11-20T04:48:44;2.80;;;1.83;;
60612;SDS011;46443;59.792;17.626;2022-11-20T04:51:10;4.43;;;2.13;;
60612;SDS011;46443;59.792;17.626;2022-11-20T04:53:37;3.38;;;1.80;;
60612;SDS011;46443;59.792;17.626;2022-11-20T04:56:04;3.25;;;2.15;;
60612;SDS011;46443;59.792;17.626;2022-11-20T04:58:31;4.05;;;1.70;;
60612;SDS011;46443;59.792;17.626;2022-11-20T05:01:03;4.05;;;2.08;;
60612;SDS011;46443;59.792;17.626;2022-11-20T05:03:30;2.67;;;1.77;;
60612;SDS011;46443;59.792;17.626;2022-11-20T05:05:56;2.78;;;2.03;;
60612;SDS011;46443;59.792;17.626;2022-11-20T05:08:22;2.75;;;1.83;;
60612;SDS011;46443;59.792;17.626;2022-11-20T05:10:48;4.30;;;2.00;;
60612;SDS011;46443;59.792;17.626;2022-11-20T05:13:14;3.07;;;1.67;;
60612;SDS011;46443;59.792;17.626;2022-11-20T05:15:40;3.47;;;1.77;;
60612;SDS011;46443;59.792;17.626;2022-11-20T05:18:06;4.03;;;1.75;;
60612;SDS011;46443;59.792;17.626;2022-11-20T05:20:32;2.58;;;1.70;;
60612;SDS011;46443;59.792;17.626;2022-11-20T05:22:58;2.58;;;1.73;;
60612;SDS011;46443;59.792;17.626;2022-11-20T05:25:24;3.55;;;1.75;;
60612;SDS011;46443;59.792;17.626;2022-11-20T05:27:50;4.18;;;2.05;;
60612;SDS011;46443;59.792;17.626;2022-11-20T05:30:16;3.00;;;2.00;;
60612;SDS011;46443;59.792;17.626;2022-11-20T05:32:42;3.28;;;2.00;;
60612;SDS011;46443;59.792;17.626;2022-11-20T05:35:08;2.60;;;1.57;;
60612;SDS011;46443;59.792;17.626;2022-11-20T05:37:34;3.33;;;1.90;;
60612;SDS011;46443;59.792;17.626;2022-11-20T05:40:00;2.92;;;1.88;;
60612;SDS011;46443;59.792;17.626;2022-11-20T05:42:29;4.43;;;1.50;;
60612;SDS011;46443;59.792;17.626;2022-11-20T05:44:56;2.97;;;1.80;;
60612;SDS011;46443;59.792;17.626;2022-11-20T05:47:22;3.65;;;2.20;;
60612;SDS011;46443;59.792;17.626;2022-11-20T05:49:48;3.17;;;2.00;;
60612;SDS011;46443;59.792;17.626;2022-11-20T05:52:14;3.05;;;1.85;;
60612;SDS011;46443;59.792;17.626;2022-11-20T05:54:40;2.97;;;1.70;;
60612;SDS011;46443;59.792;17.626;2022-11-20T05:57:06;2.83;;;1.97;;
60612;SDS011;46443;59.792;17.626;2022-11-20T05:59:32;2.90;;;1.90;;
60612;SDS011;46443;59.792;17.626;2022-11-20T06:01:58;2.87;;;1.80;;
60612;SDS011;46443;59.792;17.626;2022-11-20T06:04:24;2.55;;;1.63;;
60612;SDS011;46443;59.792;17.626;2022-11-20T06:06:50;3.15;;;1.65;;
60612;SDS011;46443;59.792;17.626;2022-11-20T06:09:16;3.75;;;1.90;;
60612;SDS011;46443;59.792;17.626;2022-11-20T06:11:42;3.87;;;1.60;;
60612;SDS011;46443;59.792;17.626;2022-11-20T06:14:09;2.75;;;1.60;;
60612;SDS011;46443;59.792;17.626;2022-11-20T06:16:35;2.50;;;1.67;;
60612;SDS011;46443;59.792;17.626;2022-11-20T06:19:01;2.90;;;1.70;;
60612;SDS011;46443;59.792;17.626;2022-11-20T06:21:27;2.63;;;1.73;;
60612;SDS011;46443;59.792;17.626;2022-11-20T06:23:53;3.92;;;1.80;;
60612;SDS011;46443;59.792;17.626;2022-11-20T06:26:23;1.90;;;1.40;;
60612;SDS011;46443;59.792;17.626;2022-11-20T06:28:50;3.20;;;1.70;;
60612;SDS011;46443;59.792;17.626;2022-11-20T06:31:17;4.80;;;1.80;;
60612;SDS011;46443;59.792;17.626;2022-11-20T06:33:43;2.25;;;1.60;;
60612;SDS011;46443;59.792;17.626;2022-11-20T06:36:10;2.03;;;1.50;;
60612;SDS011;46443;59.792;17.626;2022-11-20T06:38:37;4.13;;;1.70;;
60612;SDS011;46443;59.792;17.626;2022-11-20T06:41:04;2.47;;;1.70;;
60612;SDS011;46443;59.792;17.626;2022-11-20T06:43:30;2.72;;;1.63;;
60612;SDS011;46443;59.792;17.626;2022-11-20T06:45:56;2.78;;;1.30;;
60612;SDS011;46443;59.792;17.626;2022-11-20T06:48:23;2.25;;;1.55;;
60612;SDS011;46443;59.792;17.626;2022-11-20T06:50:49;3.40;;;1.77;;
60612;SDS011;46443;59.792;17.626;2022-11-20T06:53:15;1.85;;;1.40;;
60612;SDS011;46443;59.792;17.626;2022-11-20T06:55:42;3.75;;;1.70;;
60612;SDS011;46443;59.792;17.626;2022-11-20T06:58:08;2.00;;;1.27;;
60612;SDS011;46443;59.792;17.626;2022-11-20T07:00:34;3.53;;;1.70;;
60612;SDS011;46443;59.792;17.626;2022-11-20T07:03:04;1.95;;;1.45;;
60612;SDS011;46443;59.792;17.626;2022-11-20T07:05:30;2.40;;;1.60;;
60612;SDS011;46443;59.792;17.626;2022-11-20T07:07:56;2.15;;;1.60;;
60612;SDS011;46443;59.792;17.626;2022-11-20T07:10:22;3.05;;;1.50;;
60612;SDS011;46443;59.792;17.626;2022-11-20T07:12:49;2.33;;;1.50;;
60612;SDS011;46443;59.792;17.626;2022-11-20T07:15:15;2.55;;;1.60;;
60612;SDS011;46443;59.792;17.626;2022-11-20T07:17:41;2.67;;;1.58;;
60612;SDS011;46443;59.792;17.626;2022-11-20T07:20:08;2.88;;;1.95;;
60612;SDS011;46443;59.792;17.626;2022-11-20T07:22:34;2.10;;;1.40;;
60612;SDS011;46443;59.792;17.626;2022-11-20T07:25:00;2.08;;;1.40;;
60612;SDS011;46443;59.792;17.626;2022-11-20T07:27:26;1.58;;;1.30;;
60612;SDS011;46443;59.792;17.626;2022-11-20T07:29:52;2.47;;;1.55;;
60612;SDS011;46443;59.792;17.626;2022-11-20T07:32:18;2.77;;;1.43;;
60612;SDS011;46443;59.792;17.626;2022-11-20T07:34:44;2.25;;;1.55;;
60612;SDS011;46443;59.792;17.626;2022-11-20T07:37:11;1.75;;;1.30;;
60612;SDS011;46443;59.792;17.626;2022-11-20T07:39:37;1.95;;;1.50;;
60612;SDS011;46443;59.792;17.626;2022-11-20T07:42:03;2.08;;;1.40;;
60612;SDS011;46443;59.792;17.626;2022-11-20T07:44:29;3.22;;;1.58;;
60612;SDS011;46443;59.792;17.626;2022-11-20T07:46:55;2.55;;;1.52;;
60612;SDS011;46443;59.792;17.626;2022-11-20T07:49:21;2.53;;;1.60;;
60612;SDS011;46443;59.792;17.626;2022-11-20T07:51:49;2.40;;;1.40;;
60612;SDS011;46443;59.792;17.626;2022-11-20T07:54:16;3.35;;;1.77;;
60612;SDS011;46443;59.792;17.626;2022-11-20T07:56:42;2.60;;;1.53;;
60612;SDS011;46443;59.792;17.626;2022-11-20T07:59:08;2.42;;;1.60;;
60612;SDS011;46443;59.792;17.626;2022-11-20T08:01:33;2.00;;;1.50;;
60612;SDS011;46443;59.792;17.626;2022-11-20T08:04:00;2.42;;;1.60;;
60612;SDS011;46443;59.792;17.626;2022-11-20T08:06:26;1.73;;;1.33;;
60612;SDS011;46443;59.792;17.626;2022-11-20T08:08:51;1.70;;;1.40;;
60612;SDS011;46443;59.792;17.626;2022-11-20T08:11:17;3.47;;;1.53;;
60612;SDS011;46443;59.792;17.626;2022-11-20T08:14:02;2.50;;;1.60;;
60612;SDS011;46443;59.792;17.626;2022-11-20T08:16:37;2.55;;;1.50;;
60612;SDS011;46443;59.792;17.626;2022-11-20T08:19:04;2.13;;;1.38;;
60612;SDS011;46443;59.792;17.626;2022-11-20T08:21:30;2.88;;;1.55;;
60612;SDS011;46443;59.792;17.626;2022-11-20T08:23:57;2.33;;;1.50;;
60612;SDS011;46443;59.792;17.626;2022-11-20T08:26:23;2.03;;;1.42;;
60612;SDS011;46443;59.792;17.626;2022-11-20T08:28:52;3.30;;;1.50;;
60612;SDS011;46443;59.792;17.626;2022-11-20T08:31:19;3.65;;;1.70;;
60612;SDS011;46443;59.792;17.626;2022-11-20T08:33:45;2.35;;;1.40;;
60612;SDS011;46443;59.792;17.626;2022-11-20T08:36:11;2.25;;;1.40;;
60612;SDS011;46443;59.792;17.626;2022-11-20T08:38:37;1.57;;;1.30;;
60612;SDS011;46443;59.792;17.626;2022-11-20T08:41:04;2.15;;;1.30;;
60612;SDS011;46443;59.792;17.626;2022-11-20T08:44:04;1.85;;;1.48;;
60612;SDS011;46443;59.792;17.626;2022-11-20T08:46:40;2.33;;;1.40;;
60612;SDS011;46443;59.792;17.626;2022-11-20T08:49:09;2.97;;;1.45;;
60612;SDS011;46443;59.792;17.626;2022-11-20T08:51:35;2.35;;;1.40;;
60612;SDS011;46443;59.792;17.626;2022-11-20T08:54:01;1.63;;;1.30;;
60612;SDS011;46443;59.792;17.626;2022-11-20T08:56:28;2.08;;;1.48;;
60612;SDS011;46443;59.792;17.626;2022-11-20T08:58:54;1.67;;;1.40;;
60612;SDS011;46443;59.792;17.626;2022-11-20T09:01:20;2.53;;;1.60;;
60612;SDS011;46443;59.792;17.626;2022-11-20T09:03:46;2.13;;;1.30;;
60612;SDS011;46443;59.792;17.626;2022-11-20T09:06:13;2.83;;;1.63;;
60612;SDS011;46443;59.792;17.626;2022-11-20T09:08:39;2.03;;;1.25;;
60612;SDS011;46443;59.792;17.626;2022-11-20T09:11:05;2.47;;;1.50;;
60612;SDS011;46443;59.792;17.626;2022-11-20T09:13:32;3.15;;;1.42;;
60612;SDS011;46443;59.792;17.626;2022-11-20T09:16:01;1.83;;;1.50;;
60612;SDS011;46443;59.792;17.626;2022-11-20T09:18:27;3.40;;;1.40;;
60612;SDS011;46443;59.792;17.626;2022-11-20T09:21:00;2.95;;;1.80;;
60612;SDS011;46443;59.792;17.626;2022-11-20T09:23:27;2.00;;;1.40;;
60612;SDS011;46443;59.792;17.626;2022-11-20T09:25:53;2.10;;;1.67;;
60612;SDS011;46443;59.792;17.626;2022-11-20T09:28:20;1.40;;;1.30;;
60612;SDS011;46443;59.792;17.626;2022-11-20T09:30:47;2.50;;;1.58;;
60612;SDS011;46443;59.792;17.626;2022-11-20T09:33:13;2.33;;;1.45;;
60612;SDS011;46443;59.792;17.626;2022-11-20T09:35:39;1.63;;;1.33;;
60612;SDS011;46443;59.792;17.626;2022-11-20T09:38:05;2.45;;;1.30;;
60612;SDS011;46443;59.792;17.626;2022-11-20T09:40:32;2.38;;;1.27;;
60612;SDS011;46443;59.792;17.626;2022-11-20T09:45:36;2.95;;;1.48;;
60612;SDS011;46443;59.792;17.626;2022-11-20T09:50:50;2.38;;;1.40;;
60612;SDS011;46443;59.792;17.626;2022-11-20T09:55:54;1.55;;;1.23;;
60612;SDS011;46443;59.792;17.626;2022-11-20T10:00:46;1.67;;;1.40;;
60612;SDS011;46443;59.792;17.626;2022-11-20T10:03:16;2.05;;;1.60;;
60612;SDS011;46443;59.792;17.626;2022-11-20T10:05:46;2.17;;;1.38;;
60612;SDS011;46443;59.792;17.626;2022-11-20T10:08:17;2.50;;;1.55;;
60612;SDS011;46443;59.792;17.626;2022-11-20T10:18:48;1.75;;;1.45;;
60612;SDS011;46443;59.792;17.626;2022-11-20T10:31:37;2.33;;;1.52;;
60612;SDS011;46443;59.792;17.626;2022-11-20T10:34:06;3.67;;;1.55;;
60612;SDS011;46443;59.792;17.626;2022-11-20T10:36:38;2.85;;;1.67;;
60612;SDS011;46443;59.792;17.626;2022-11-20T10:39:11;2.53;;;1.50;;
60612;SDS011;46443;59.792;17.626;2022-11-20T10:41:41;3.00;;;1.42;;
60612;SDS011;46443;59.792;17.626;2022-11-20T10:46:38;1.95;;;1.40;;
60612;SDS011;46443;59.792;17.626;2022-11-20T10:49:13;3.03;;;1.55;;
60612;SDS011;46443;59.792;17.626;2022-11-20T10:51:44;1.90;;;1.40;;
60612;SDS011;46443;59.792;17.626;2022-11-20T10:56:58;2.33;;;1.40;;
60612;SDS011;46443;59.792;17.626;2022-11-20T11:02:21;2.10;;;1.52;;
60612;SDS011;46443;59.792;17.626;2022-11-20T11:04:48;2.53;;;1.65;;
60612;SDS011;46443;59.792;17.626;2022-11-20T11:09:44;2.03;;;1.50;;
60612;SDS011;46443;59.792;17.626;2022-11-20T11:12:12;2.35;;;1.50;;
60612;SDS011;46443;59.792;17.626;2022-11-20T11:14:46;2.35;;;1.70;;
60612;SDS011;46443;59.792;17.626;2022-11-20T11:17:28;1.85;;;1.40;;
60612;SDS011;46443;59.792;17.626;2022-11-20T11:19:58;2.55;;;1.58;;
60612;SDS011;46443;59.792;17.626;2022-11-20T11:22:24;1.80;;;1.40;;
60612;SDS011;46443;59.792;17.626;2022-11-20T11:24:51;3.55;;;1.80;;
60612;SDS011;46443;59.792;17.626;2022-11-20T11:27:17;2.60;;;1.50;;
60612;SDS011;46443;59.792;17.626;2022-11-20T11:29:43;2.30;;;1.60;;
60612;SDS011;46443;59.792;17.626;2022-11-20T11:34:38;2.55;;;1.60;;
60612;SDS011;46443;59.792;17.626;2022-11-20T11:37:04;1.70;;;1.40;;
60612;SDS011;46443;59.792;17.626;2022-11-20T11:39:35;2.00;;;1.40;;
60612;SDS011;46443;59.792;17.626;2022-11-20T11:42:01;2.92;;;1.60;;
60612;SDS011;46443;59.792;17.626;2022-11-20T11:44:28;2.63;;;1.60;;
60612;SDS011;46443;59.792;17.626;2022-11-20T11:49:49;2.42;;;1.60;;
60612;SDS011;46443;59.792;17.626;2022-11-20T11:54:48;2.13;;;1.70;;
60612;SDS011;46443;59.792;17.626;2022-11-20T12:05:16;3.03;;;1.80;;
60612;SDS011;46443;59.792;17.626;2022-11-20T12:07:45;2.53;;;1.65;;
60612;SDS011;46443;59.792;17.626;2022-11-20T12:12:43;2.25;;;1.58;;
60612;SDS011;46443;59.792;17.626;2022-11-20T12:15:10;3.03;;;1.70;;
60612;SDS011;46443;59.792;17.626;2022-11-20T12:17:37;6.35;;;2.10;;
60612;SDS011;46443;59.792;17.626;2022-11-20T12:20:05;2.80;;;1.70;;
60612;SDS011;46443;59.792;17.626;2022-11-20T12:22:34;3.83;;;2.10;;
60612;SDS011;46443;59.792;17.626;2022-11-20T12:25:11;3.10;;;1.75;;
60612;SDS011;46443;59.792;17.626;2022-11-20T12:27:43;2.95;;;1.85;;
60612;SDS011;46443;59.792;17.626;2022-11-20T12:30:17;4.43;;;2.15;;
60612;SDS011;46443;59.792;17.626;2022-11-20T12:40:44;3.20;;;1.92;;
60612;SDS011;46443;59.792;17.626;2022-11-20T12:48:41;3.75;;;2.30;;
60612;SDS011;46443;59.792;17.626;2022-11-20T12:53:43;3.42;;;2.00;;
60612;SDS011;46443;59.792;17.626;2022-11-20T13:01:30;3.53;;;1.90;;
60612;SDS011;46443;59.792;17.626;2022-11-20T13:06:57;2.90;;;2.10;;
60612;SDS011;46443;59.792;17.626;2022-11-20T13:09:24;4.47;;;2.17;;
60612;SDS011;46443;59.792;17.626;2022-11-20T13:14:49;4.63;;;2.22;;
60612;SDS011;46443;59.792;17.626;2022-11-20T13:19:51;3.53;;;2.10;;
60612;SDS011;46443;59.792;17.626;2022-11-20T13:22:27;2.90;;;2.00;;
60612;SDS011;46443;59.792;17.626;2022-11-20T13:24:54;3.17;;;2.00;;
60612;SDS011;46443;59.792;17.626;2022-11-20T13:27:23;3.47;;;1.98;;
60612;SDS011;46443;59.792;17.626;2022-11-20T13:30:12;2.70;;;1.83;;
60612;SDS011;46443;59.792;17.626;2022-11-20T13:35:23;3.33;;;2.10;;
60612;SDS011;46443;59.792;17.626;2022-11-20T13:37:58;3.65;;;1.85;;
60612;SDS011;46443;59.792;17.626;2022-11-20T13:40:24;4.70;;;2.35;;
60612;SDS011;46443;59.792;17.626;2022-11-20T13:43:37;6.22;;;2.20;;
60612;SDS011;46443;59.792;17.626;2022-11-20T13:45:37;3.58;;;2.17;;
60612;SDS011;46443;59.792;17.626;2022-11-20T13:48:04;4.13;;;2.50;;
60612;SDS011;46443;59.792;17.626;2022-11-20T13:58:22;3.80;;;2.03;;
60612;SDS011;46443;59.792;17.626;2022-11-20T14:03:38;2.50;;;1.95;;
60612;SDS011;46443;59.792;17.626;2022-11-20T14:06:05;3.30;;;2.08;;
60612;SDS011;46443;59.792;17.626;2022-11-20T14:08:42;4.85;;;2.10;;
60612;SDS011;46443;59.792;17.626;2022-11-20T14:13:39;3.33;;;2.05;;
60612;SDS011;46443;59.792;17.626;2022-11-20T14:16:05;5.13;;;2.33;;
60612;SDS011;46443;59.792;17.626;2022-11-20T14:18:31;3.80;;;2.10;;
60612;SDS011;46443;59.792;17.626;2022-11-20T14:20:59;3.90;;;2.07;;
60612;SDS011;46443;59.792;17.626;2022-11-20T14:23:27;3.60;;;2.15;;
60612;SDS011;46443;59.792;17.626;2022-11-20T14:25:53;3.75;;;2.00;;
60612;SDS011;46443;59.792;17.626;2022-11-20T14:28:21;3.80;;;1.90;;
60612;SDS011;46443;59.792;17.626;2022-11-20T14:30:50;2.95;;;2.20;;
60612;SDS011;46443;59.792;17.626;2022-11-20T14:33:16;3.75;;;2.17;;
60612;SDS011;46443;59.792;17.626;2022-11-20T14:35:47;3.03;;;2.08;;
60612;SDS011;46443;59.792;17.626;2022-11-20T14:38:14;3.58;;;2.10;;
60612;SDS011;46443;59.792;17.626;2022-11-20T14:40:41;3.13;;;1.98;;
60612;SDS011;46443;59.792;17.626;2022-11-20T14:43:27;5.43;;;2.33;;
60612;SDS011;46443;59.792;17.626;2022-11-20T14:46:00;4.32;;;2.25;;
60612;SDS011;46443;59.792;17.626;2022-11-20T14:48:45;3.40;;;2.15;;
60612;SDS011;46443;59.792;17.626;2022-11-20T14:54:07;3.13;;;2.10;;
60612;SDS011;46443;59.792;17.626;2022-11-20T14:56:33;3.83;;;1.85;;
60612;SDS011;46443;59.792;17.626;2022-11-20T14:58:59;3.55;;;2.13;;
60612;SDS011;46443;59.792;17.626;2022-11-20T15:01:29;3.97;;;2.20;;
60612;SDS011;46443;59.792;17.626;2022-11-20T15:04:13;3.65;;;2.30;;
60612;SDS011;46443;59.792;17.626;2022-11-20T15:06:48;3.65;;;2.13;;
60612;SDS011;46443;59.792;17.626;2022-11-20T15:09:15;3.45;;;2.10;;
60612;SDS011;46443;59.792;17.626;2022-11-20T15:11:49;2.55;;;1.92;;
60612;SDS011;46443;59.792;17.626;2022-11-20T15:14:17;5.53;;;2.45;;
60612;SDS011;46443;59.792;17.626;2022-11-20T15:16:43;3.50;;;2.20;;
60612;SDS011;46443;59.792;17.626;2022-11-20T15:19:13;3.90;;;2.50;;
60612;SDS011;46443;59.792;17.626;2022-11-20T15:21:42;3.95;;;2.47;;
60612;SDS011;46443;59.792;17.626;2022-11-20T15:24:08;4.97;;;2.50;;
60612;SDS011;46443;59.792;17.626;2022-11-20T15:26:34;3.95;;;2.30;;
60612;SDS011;46443;59.792;17.626;2022-11-20T15:29:00;3.85;;;2.30;;
60612;SDS011;46443;59.792;17.626;2022-11-20T15:31:26;4.57;;;2.30;;
60612;SDS011;46443;59.792;17.626;2022-11-20T15:33:52;3.35;;;2.10;;
60612;SDS011;46443;59.792;17.626;2022-11-20T15:36:18;4.28;;;2.30;;
60612;SDS011;46443;59.792;17.626;2022-11-20T15:38:44;5.28;;;2.20;;
60612;SDS011;46443;59.792;17.626;2022-11-20T15:41:10;2.65;;;2.03;;
60612;SDS011;46443;59.792;17.626;2022-11-20T15:43:36;4.38;;;1.95;;
60612;SDS011;46443;59.792;17.626;2022-11-20T15:46:05;5.43;;;2.60;;
60612;SDS011;46443;59.792;17.626;2022-11-20T15:48:34;3.10;;;1.90;;
60612;SDS011;46443;59.792;17.626;2022-11-20T15:51:05;6.07;;;2.10;;
60612;SDS011;46443;59.792;17.626;2022-11-20T15:53:32;3.70;;;2.17;;
60612;SDS011;46443;59.792;17.626;2022-11-20T15:55:58;3.65;;;1.92;;
60612;SDS011;46443;59.792;17.626;2022-11-20T15:58:24;5.20;;;2.22;;
60612;SDS011;46443;59.792;17.626;2022-11-20T16:00:51;5.80;;;2.47;;
60612;SDS011;46443;59.792;17.626;2022-11-20T16:03:17;4.22;;;2.00;;
60612;SDS011;46443;59.792;17.626;2022-11-20T16:05:43;4.32;;;1.92;;
60612;SDS011;46443;59.792;17.626;2022-11-20T16:08:09;3.55;;;2.00;;
60612;SDS011;46443;59.792;17.626;2022-11-20T16:10:35;3.20;;;1.92;;
60612;SDS011;46443;59.792;17.626;2022-11-20T16:13:02;2.95;;;1.90;;
60612;SDS011;46443;59.792;17.626;2022-11-20T16:15:50;3.72;;;1.95;;
60612;SDS011;46443;59.792;17.626;2022-11-20T16:18:18;3.47;;;2.10;;
60612;SDS011;46443;59.792;17.626;2022-11-20T16:20:45;3.30;;;1.77;;
60612;SDS011;46443;59.792;17.626;2022-11-20T16:23:12;4.22;;;2.00;;
60612;SDS011;46443;59.792;17.626;2022-11-20T16:25:38;4.13;;;2.00;;
60612;SDS011;46443;59.792;17.626;2022-11-20T16:28:04;3.28;;;2.17;;